sensor_id;sensor_type;location;lat;lon;timestamp;P1;durP1;ratioP1;P2;durP2;ratioP2
57659;SDS011;43485;45.680;15.702;2023-08-07T00:00:59;0.35;;;0.20;;
57659;SDS011;43485;45.680;15.702;2023-08-07T00:03:25;0.10;;;0.10;;
57659;SDS011;43485;45.680;15.702;2023-08-07T00:05:51;0.10;;;0.10;;
57659;SDS011;43485;45.680;15.702;2023-08-07T00:08:17;0.10;;;0.10;;
57659;SDS011;43485;45.680;15.702;2023-08-07T00:10:43;0.17;;;0.17;;
57659;SDS011;43485;45.680;15.702;2023-08-07T00:13:09;0.20;;;0.20;;
57659;SDS011;43485;45.680;15.702;2023-08-07T00:18:20;0.10;;;0.10;;
57659;SDS011;43485;45.680;15.702;2023-08-07T00:20:46;0.17;;;0.17;;
57659;SDS011;43485;45.680;15.702;2023-08-07T00:23:12;0.10;;;0.10;;
57659;SDS011;43485;45.680;15.702;2023-08-07T00:25:38;0.10;;;0.10;;
57659;SDS011;43485;45.680;15.702;2023-08-07T00:28:04;0.40;;;0.40;;
57659;SDS011;43485;45.680;15.702;2023-08-07T00:30:30;0.10;;;0.10;;
57659;SDS011;43485;45.680;15.702;2023-08-07T00:32:56;0.10;;;0.10;;
57659;SDS011;43485;45.680;15.702;2023-08-07T00:35:22;9.00;;;0.73;;
57659;SDS011;43485;45.680;15.702;2023-08-07T00:37:48;0.10;;;0.10;;
57659;SDS011;43485;45.680;15.702;2023-08-07T00:40:14;0.10;;;0.10;;
57659;SDS011;43485;45.680;15.702;2023-08-07T00:42:40;0.10;;;0.10;;
57659;SDS011;43485;45.680;15.702;2023-08-07T00:45:06;0.10;;;0.10;;
57659;SDS011;43485;45.680;15.702;2023-08-07T00:47:32;0.10;;;0.10;;
57659;SDS011;43485;45.680;15.702;2023-08-07T00:49:58;0.10;;;0.10;;
57659;SDS011;43485;45.680;15.702;2023-08-07T00:52:25;0.10;;;0.10;;
57659;SDS011;43485;45.680;15.702;2023-08-07T00:54:51;0.90;;;0.47;;
57659;SDS011;43485;45.680;15.702;2023-08-07T00:57:17;0.10;;;0.10;;
57659;SDS011;43485;45.680;15.702;2023-08-07T00:59:47;0.30;;;0.15;;
57659;SDS011;43485;45.680;15.702;2023-08-07T01:02:14;0.10;;;0.10;;
57659;SDS011;43485;45.680;15.702;2023-08-07T01:04:40;0.10;;;0.10;;
57659;SDS011;43485;45.680;15.702;2023-08-07T01:09:32;0.10;;;0.10;;
57659;SDS011;43485;45.680;15.702;2023-08-07T01:17:38;0.10;;;0.10;;
57659;SDS011;43485;45.680;15.702;2023-08-07T01:20:07;0.10;;;0.10;;
57659;SDS011;43485;45.680;15.702;2023-08-07T01:22:34;0.10;;;0.10;;
57659;SDS011;43485;45.680;15.702;2023-08-07T01:25:00;0.10;;;0.10;;
57659;SDS011;43485;45.680;15.702;2023-08-07T01:30:50;0.25;;;0.10;;
57659;SDS011;43485;45.680;15.702;2023-08-07T01:33:27;0.05;;;0.05;;
57659;SDS011;43485;45.680;15.702;2023-08-07T01:36:04;0.10;;;0.10;;
57659;SDS011;43485;45.680;15.702;2023-08-07T01:38:32;0.38;;;0.38;;
57659;SDS011;43485;45.680;15.702;2023-08-07T01:40:59;0.10;;;0.10;;
57659;SDS011;43485;45.680;15.702;2023-08-07T01:43:27;0.20;;;0.20;;
57659;SDS011;43485;45.680;15.702;2023-08-07T01:45:53;0.10;;;0.10;;
57659;SDS011;43485;45.680;15.702;2023-08-07T01:48:19;0.30;;;0.30;;
57659;SDS011;43485;45.680;15.702;2023-08-07T01:50:45;0.10;;;0.10;;
57659;SDS011;43485;45.680;15.702;2023-08-07T01:53:11;0.10;;;0.10;;
57659;SDS011;43485;45.680;15.702;2023-08-07T01:55:37;0.10;;;0.10;;
57659;SDS011;43485;45.680;15.702;2023-08-07T02:00:29;0.15;;;0.15;;
57659;SDS011;43485;45.680;15.702;2023-08-07T02:02:56;0.10;;;0.10;;
57659;SDS011;43485;45.680;15.702;2023-08-07T02:05:23;0.10;;;0.10;;
57659;SDS011;43485;45.680;15.702;2023-08-07T02:07:49;0.10;;;0.10;;
57659;SDS011;43485;45.680;15.702;2023-08-07T02:10:15;0.55;;;0.50;;
57659;SDS011;43485;45.680;15.702;2023-08-07T02:12:41;0.80;;;0.47;;
57659;SDS011;43485;45.680;15.702;2023-08-07T02:15:07;0.20;;;0.20;;
57659;SDS011;43485;45.680;15.702;2023-08-07T02:17:33;0.10;;;0.10;;
57659;SDS011;43485;45.680;15.702;2023-08-07T02:20:00;0.20;;;0.20;;
57659;SDS011;43485;45.680;15.702;2023-08-07T02:22:26;0.20;;;0.20;;
57659;SDS011;43485;45.680;15.702;2023-08-07T02:24:52;0.20;;;0.20;;
57659;SDS011;43485;45.680;15.702;2023-08-07T02:27:18;0.00;;;0.00;;
57659;SDS011;43485;45.680;15.702;2023-08-07T02:29:44;0.28;;;0.20;;
57659;SDS011;43485;45.680;15.702;2023-08-07T02:32:10;0.10;;;0.10;;
57659;SDS011;43485;45.680;15.702;2023-08-07T02:34:36;0.10;;;0.10;;
57659;SDS011;43485;45.680;15.702;2023-08-07T02:37:03;0.45;;;0.30;;
57659;SDS011;43485;45.680;15.702;2023-08-07T02:41:55;0.10;;;0.10;;
57659;SDS011;43485;45.680;15.702;2023-08-07T02:44:21;0.20;;;0.20;;
57659;SDS011;43485;45.680;15.702;2023-08-07T02:46:47;0.20;;;0.20;;
57659;SDS011;43485;45.680;15.702;2023-08-07T02:51:39;0.10;;;0.10;;
57659;SDS011;43485;45.680;15.702;2023-08-07T02:54:05;0.45;;;0.45;;
57659;SDS011;43485;45.680;15.702;2023-08-07T02:56:31;0.10;;;0.10;;
57659;SDS011;43485;45.680;15.702;2023-08-07T02:58:57;0.10;;;0.10;;
57659;SDS011;43485;45.680;15.702;2023-08-07T03:01:24;0.10;;;0.10;;
57659;SDS011;43485;45.680;15.702;2023-08-07T03:03:52;0.10;;;0.10;;
57659;SDS011;43485;45.680;15.702;2023-08-07T03:06:18;0.10;;;0.10;;
57659;SDS011;43485;45.680;15.702;2023-08-07T03:08:44;0.15;;;0.15;;
57659;SDS011;43485;45.680;15.702;2023-08-07T03:11:10;0.10;;;0.10;;
57659;SDS011;43485;45.680;15.702;2023-08-07T03:13:36;0.10;;;0.10;;
57659;SDS011;43485;45.680;15.702;2023-08-07T03:16:03;0.10;;;0.10;;
57659;SDS011;43485;45.680;15.702;2023-08-07T03:18:31;0.10;;;0.10;;
57659;SDS011;43485;45.680;15.702;2023-08-07T03:20:57;2.30;;;0.20;;
57659;SDS011;43485;45.680;15.702;2023-08-07T03:23:24;0.10;;;0.10;;
57659;SDS011;43485;45.680;15.702;2023-08-07T03:28:37;0.10;;;0.10;;
57659;SDS011;43485;45.680;15.702;2023-08-07T03:31:04;0.40;;;0.40;;
57659;SDS011;43485;45.680;15.702;2023-08-07T03:33:30;0.75;;;0.20;;
57659;SDS011;43485;45.680;15.702;2023-08-07T03:38:23;0.55;;;0.30;;
57659;SDS011;43485;45.680;15.702;2023-08-07T03:40:50;0.10;;;0.10;;
57659;SDS011;43485;45.680;15.702;2023-08-07T03:43:16;0.10;;;0.10;;
57659;SDS011;43485;45.680;15.702;2023-08-07T03:45:42;0.10;;;0.10;;
57659;SDS011;43485;45.680;15.702;2023-08-07T03:48:08;0.10;;;0.10;;
57659;SDS011;43485;45.680;15.702;2023-08-07T03:50:34;0.05;;;0.05;;
57659;SDS011;43485;45.680;15.702;2023-08-07T03:53:02;0.17;;;0.17;;
57659;SDS011;43485;45.680;15.702;2023-08-07T03:55:31;0.17;;;0.17;;
57659;SDS011;43485;45.680;15.702;2023-08-07T04:00:23;0.10;;;0.10;;
57659;SDS011;43485;45.680;15.702;2023-08-07T04:02:49;0.10;;;0.10;;
57659;SDS011;43485;45.680;15.702;2023-08-07T04:05:16;0.10;;;0.10;;
57659;SDS011;43485;45.680;15.702;2023-08-07T04:07:41;0.10;;;0.10;;
57659;SDS011;43485;45.680;15.702;2023-08-07T04:10:08;0.10;;;0.10;;
57659;SDS011;43485;45.680;15.702;2023-08-07T04:12:34;0.10;;;0.10;;
57659;SDS011;43485;45.680;15.702;2023-08-07T04:15:00;0.20;;;0.20;;
57659;SDS011;43485;45.680;15.702;2023-08-07T04:17:26;0.10;;;0.10;;
57659;SDS011;43485;45.680;15.702;2023-08-07T04:19:52;0.10;;;0.10;;
57659;SDS011;43485;45.680;15.702;2023-08-07T04:22:18;0.10;;;0.10;;
57659;SDS011;43485;45.680;15.702;2023-08-07T04:24:44;0.30;;;0.30;;
57659;SDS011;43485;45.680;15.702;2023-08-07T04:27:11;0.10;;;0.10;;
57659;SDS011;43485;45.680;15.702;2023-08-07T04:29:37;0.10;;;0.10;;
57659;SDS011;43485;45.680;15.702;2023-08-07T04:32:03;0.90;;;0.20;;
57659;SDS011;43485;45.680;15.702;2023-08-07T04:34:30;0.10;;;0.10;;
57659;SDS011;43485;45.680;15.702;2023-08-07T04:36:56;0.30;;;0.25;;
57659;SDS011;43485;45.680;15.702;2023-08-07T04:39:22;0.22;;;0.22;;
57659;SDS011;43485;45.680;15.702;2023-08-07T04:41:48;0.10;;;0.10;;
57659;SDS011;43485;45.680;15.702;2023-08-07T04:44:17;0.10;;;0.10;;
57659;SDS011;43485;45.680;15.702;2023-08-07T04:46:43;0.20;;;0.20;;
57659;SDS011;43485;45.680;15.702;2023-08-07T04:49:09;0.15;;;0.15;;
57659;SDS011;43485;45.680;15.702;2023-08-07T04:54:01;3.22;;;0.70;;
57659;SDS011;43485;45.680;15.702;2023-08-07T04:56:27;0.30;;;0.30;;
57659;SDS011;43485;45.680;15.702;2023-08-07T04:58:53;1.45;;;0.40;;
57659;SDS011;43485;45.680;15.702;2023-08-07T05:01:19;0.20;;;0.20;;
57659;SDS011;43485;45.680;15.702;2023-08-07T05:03:46;0.30;;;0.30;;
57659;SDS011;43485;45.680;15.702;2023-08-07T05:06:12;0.32;;;0.25;;
57659;SDS011;43485;45.680;15.702;2023-08-07T05:08:38;0.10;;;0.10;;
57659;SDS011;43485;45.680;15.702;2023-08-07T05:11:04;0.40;;;0.20;;
57659;SDS011;43485;45.680;15.702;2023-08-07T05:13:30;0.10;;;0.10;;
57659;SDS011;43485;45.680;15.702;2023-08-07T05:15:56;2.30;;;1.65;;
57659;SDS011;43485;45.680;15.702;2023-08-07T05:18:22;0.55;;;0.50;;
57659;SDS011;43485;45.680;15.702;2023-08-07T05:20:48;0.32;;;0.20;;
57659;SDS011;43485;45.680;15.702;2023-08-07T05:23:14;0.10;;;0.10;;
57659;SDS011;43485;45.680;15.702;2023-08-07T05:25:40;0.10;;;0.10;;
57659;SDS011;43485;45.680;15.702;2023-08-07T05:28:06;0.10;;;0.10;;
57659;SDS011;43485;45.680;15.702;2023-08-07T05:30:32;0.10;;;0.10;;
57659;SDS011;43485;45.680;15.702;2023-08-07T05:32:58;0.10;;;0.10;;
57659;SDS011;43485;45.680;15.702;2023-08-07T05:35:24;0.15;;;0.15;;
57659;SDS011;43485;45.680;15.702;2023-08-07T05:40:16;0.98;;;0.70;;
57659;SDS011;43485;45.680;15.702;2023-08-07T05:42:43;0.20;;;0.10;;
57659;SDS011;43485;45.680;15.702;2023-08-07T05:45:09;0.35;;;0.28;;
57659;SDS011;43485;45.680;15.702;2023-08-07T05:47:36;0.20;;;0.20;;
57659;SDS011;43485;45.680;15.702;2023-08-07T05:50:02;0.10;;;0.10;;
57659;SDS011;43485;45.680;15.702;2023-08-07T05:52:28;0.10;;;0.10;;
57659;SDS011;43485;45.680;15.702;2023-08-07T05:54:54;0.10;;;0.10;;
57659;SDS011;43485;45.680;15.702;2023-08-07T05:57:20;0.55;;;0.32;;
57659;SDS011;43485;45.680;15.702;2023-08-07T05:59:46;0.10;;;0.10;;
57659;SDS011;43485;45.680;15.702;2023-08-07T06:02:12;0.28;;;0.20;;
57659;SDS011;43485;45.680;15.702;2023-08-07T06:07:04;0.10;;;0.10;;
57659;SDS011;43485;45.680;15.702;2023-08-07T06:09:31;0.38;;;0.20;;
57659;SDS011;43485;45.680;15.702;2023-08-07T06:14:23;0.20;;;0.20;;
57659;SDS011;43485;45.680;15.702;2023-08-07T06:16:50;0.10;;;0.10;;
57659;SDS011;43485;45.680;15.702;2023-08-07T06:19:17;0.20;;;0.20;;
57659;SDS011;43485;45.680;15.702;2023-08-07T06:21:45;0.20;;;0.20;;
57659;SDS011;43485;45.680;15.702;2023-08-07T06:26:37;0.10;;;0.10;;
57659;SDS011;43485;45.680;15.702;2023-08-07T06:29:03;0.17;;;0.10;;
57659;SDS011;43485;45.680;15.702;2023-08-07T06:31:29;0.10;;;0.10;;
57659;SDS011;43485;45.680;15.702;2023-08-07T06:33:55;0.30;;;0.30;;
57659;SDS011;43485;45.680;15.702;2023-08-07T06:36:21;0.20;;;0.20;;
57659;SDS011;43485;45.680;15.702;2023-08-07T06:38:47;0.10;;;0.10;;
57659;SDS011;43485;45.680;15.702;2023-08-07T06:41:13;0.30;;;0.30;;
57659;SDS011;43485;45.680;15.702;2023-08-07T06:43:39;0.10;;;0.10;;
57659;SDS011;43485;45.680;15.702;2023-08-07T06:46:05;0.10;;;0.10;;
57659;SDS011;43485;45.680;15.702;2023-08-07T06:48:31;0.40;;;0.30;;
57659;SDS011;43485;45.680;15.702;2023-08-07T06:50:58;0.75;;;0.55;;
57659;SDS011;43485;45.680;15.702;2023-08-07T06:53:24;0.10;;;0.10;;
57659;SDS011;43485;45.680;15.702;2023-08-07T06:55:50;0.10;;;0.10;;
57659;SDS011;43485;45.680;15.702;2023-08-07T06:58:16;0.10;;;0.10;;
57659;SDS011;43485;45.680;15.702;2023-08-07T07:00:42;0.10;;;0.10;;
57659;SDS011;43485;45.680;15.702;2023-08-07T07:03:08;1.75;;;1.08;;
57659;SDS011;43485;45.680;15.702;2023-08-07T07:05:35;0.10;;;0.10;;
57659;SDS011;43485;45.680;15.702;2023-08-07T07:08:01;0.28;;;0.20;;
57659;SDS011;43485;45.680;15.702;2023-08-07T07:10:28;0.10;;;0.10;;
57659;SDS011;43485;45.680;15.702;2023-08-07T07:12:54;0.22;;;0.20;;
57659;SDS011;43485;45.680;15.702;2023-08-07T07:15:20;0.20;;;0.20;;
57659;SDS011;43485;45.680;15.702;2023-08-07T07:20:12;0.10;;;0.10;;
57659;SDS011;43485;45.680;15.702;2023-08-07T07:25:04;0.10;;;0.10;;
57659;SDS011;43485;45.680;15.702;2023-08-07T07:27:31;0.10;;;0.10;;
57659;SDS011;43485;45.680;15.702;2023-08-07T07:32:23;0.25;;;0.20;;
57659;SDS011;43485;45.680;15.702;2023-08-07T07:34:51;0.10;;;0.10;;
57659;SDS011;43485;45.680;15.702;2023-08-07T07:39:43;0.20;;;0.20;;
57659;SDS011;43485;45.680;15.702;2023-08-07T07:42:09;0.20;;;0.20;;
57659;SDS011;43485;45.680;15.702;2023-08-07T07:47:01;0.30;;;0.30;;
57659;SDS011;43485;45.680;15.702;2023-08-07T07:49:27;0.10;;;0.10;;
57659;SDS011;43485;45.680;15.702;2023-08-07T07:54:19;0.20;;;0.20;;
57659;SDS011;43485;45.680;15.702;2023-08-07T07:59:11;0.10;;;0.10;;
57659;SDS011;43485;45.680;15.702;2023-08-07T08:01:38;0.10;;;0.10;;
57659;SDS011;43485;45.680;15.702;2023-08-07T08:04:04;0.10;;;0.10;;
57659;SDS011;43485;45.680;15.702;2023-08-07T08:06:31;0.10;;;0.10;;
57659;SDS011;43485;45.680;15.702;2023-08-07T08:08:57;0.20;;;0.20;;
57659;SDS011;43485;45.680;15.702;2023-08-07T08:11:24;0.17;;;0.17;;
57659;SDS011;43485;45.680;15.702;2023-08-07T08:13:50;0.10;;;0.10;;
57659;SDS011;43485;45.680;15.702;2023-08-07T08:18:42;0.10;;;0.10;;
57659;SDS011;43485;45.680;15.702;2023-08-07T08:21:08;0.75;;;0.22;;
57659;SDS011;43485;45.680;15.702;2023-08-07T08:23:34;0.70;;;0.30;;
57659;SDS011;43485;45.680;15.702;2023-08-07T08:26:01;0.20;;;0.20;;
57659;SDS011;43485;45.680;15.702;2023-08-07T08:28:27;0.30;;;0.30;;
57659;SDS011;43485;45.680;15.702;2023-08-07T08:30:53;0.25;;;0.25;;
57659;SDS011;43485;45.680;15.702;2023-08-07T08:33:19;0.20;;;0.20;;
57659;SDS011;43485;45.680;15.702;2023-08-07T08:35:45;0.20;;;0.20;;
57659;SDS011;43485;45.680;15.702;2023-08-07T08:38:11;0.30;;;0.30;;
57659;SDS011;43485;45.680;15.702;2023-08-07T08:40:37;0.20;;;0.20;;
57659;SDS011;43485;45.680;15.702;2023-08-07T08:43:05;0.40;;;0.40;;
57659;SDS011;43485;45.680;15.702;2023-08-07T08:45:31;0.25;;;0.25;;
57659;SDS011;43485;45.680;15.702;2023-08-07T08:50:47;0.20;;;0.20;;
57659;SDS011;43485;45.680;15.702;2023-08-07T08:53:15;0.30;;;0.30;;
57659;SDS011;43485;45.680;15.702;2023-08-07T08:55:42;0.30;;;0.30;;
57659;SDS011;43485;45.680;15.702;2023-08-07T08:58:12;0.30;;;0.30;;
57659;SDS011;43485;45.680;15.702;2023-08-07T09:00:41;18.05;;;1.20;;
57659;SDS011;43485;45.680;15.702;2023-08-07T09:03:07;0.40;;;0.40;;
57659;SDS011;43485;45.680;15.702;2023-08-07T09:05:33;0.50;;;0.50;;
57659;SDS011;43485;45.680;15.702;2023-08-07T09:08:02;0.40;;;0.40;;
57659;SDS011;43485;45.680;15.702;2023-08-07T09:10:28;0.30;;;0.30;;
57659;SDS011;43485;45.680;15.702;2023-08-07T09:12:57;0.60;;;0.60;;
57659;SDS011;43485;45.680;15.702;2023-08-07T09:15:31;0.25;;;0.25;;
57659;SDS011;43485;45.680;15.702;2023-08-07T09:17:58;0.65;;;0.65;;
57659;SDS011;43485;45.680;15.702;2023-08-07T09:20:24;0.47;;;0.47;;
57659;SDS011;43485;45.680;15.702;2023-08-07T09:22:51;0.40;;;0.40;;
57659;SDS011;43485;45.680;15.702;2023-08-07T09:28:02;0.50;;;0.50;;
57659;SDS011;43485;45.680;15.702;2023-08-07T09:30:30;0.50;;;0.50;;
57659;SDS011;43485;45.680;15.702;2023-08-07T09:32:59;0.50;;;0.50;;
57659;SDS011;43485;45.680;15.702;2023-08-07T09:35:26;0.60;;;0.60;;
57659;SDS011;43485;45.680;15.702;2023-08-07T09:37:59;0.43;;;0.43;;
57659;SDS011;43485;45.680;15.702;2023-08-07T09:40:26;0.50;;;0.50;;
57659;SDS011;43485;45.680;15.702;2023-08-07T09:42:52;0.40;;;0.40;;
57659;SDS011;43485;45.680;15.702;2023-08-07T09:45:26;0.68;;;0.68;;
57659;SDS011;43485;45.680;15.702;2023-08-07T09:50:38;0.60;;;0.60;;
57659;SDS011;43485;45.680;15.702;2023-08-07T09:53:04;0.50;;;0.50;;
57659;SDS011;43485;45.680;15.702;2023-08-07T09:55:31;0.60;;;0.60;;
57659;SDS011;43485;45.680;15.702;2023-08-07T09:57:57;0.70;;;0.70;;
57659;SDS011;43485;45.680;15.702;2023-08-07T10:00:25;0.82;;;0.82;;
57659;SDS011;43485;45.680;15.702;2023-08-07T10:02:51;0.80;;;0.80;;
57659;SDS011;43485;45.680;15.702;2023-08-07T10:05:19;0.70;;;0.70;;
57659;SDS011;43485;45.680;15.702;2023-08-07T10:07:45;0.80;;;0.80;;
57659;SDS011;43485;45.680;15.702;2023-08-07T10:10:12;0.88;;;0.88;;
57659;SDS011;43485;45.680;15.702;2023-08-07T10:12:38;0.82;;;0.82;;
57659;SDS011;43485;45.680;15.702;2023-08-07T10:15:05;0.80;;;0.80;;
57659;SDS011;43485;45.680;15.702;2023-08-07T10:17:32;0.90;;;0.90;;
57659;SDS011;43485;45.680;15.702;2023-08-07T10:19:59;0.85;;;0.85;;
57659;SDS011;43485;45.680;15.702;2023-08-07T10:22:25;0.90;;;0.90;;
57659;SDS011;43485;45.680;15.702;2023-08-07T10:24:56;0.90;;;0.90;;
57659;SDS011;43485;45.680;15.702;2023-08-07T10:27:25;1.40;;;1.30;;
57659;SDS011;43485;45.680;15.702;2023-08-07T10:29:53;0.90;;;0.90;;
57659;SDS011;43485;45.680;15.702;2023-08-07T10:32:20;0.90;;;0.90;;
57659;SDS011;43485;45.680;15.702;2023-08-07T10:40:21;0.82;;;0.82;;
57659;SDS011;43485;45.680;15.702;2023-08-07T10:45:33;0.60;;;0.60;;
57659;SDS011;43485;45.680;15.702;2023-08-07T10:50:48;0.60;;;0.60;;
57659;SDS011;43485;45.680;15.702;2023-08-07T10:53:34;0.70;;;0.70;;
57659;SDS011;43485;45.680;15.702;2023-08-07T10:56:10;0.88;;;0.88;;
57659;SDS011;43485;45.680;15.702;2023-08-07T10:58:54;0.98;;;0.95;;
57659;SDS011;43485;45.680;15.702;2023-08-07T11:03:50;0.88;;;0.88;;
57659;SDS011;43485;45.680;15.702;2023-08-07T11:06:21;1.00;;;1.00;;
57659;SDS011;43485;45.680;15.702;2023-08-07T11:08:52;0.88;;;0.88;;
57659;SDS011;43485;45.680;15.702;2023-08-07T11:11:19;1.10;;;1.00;;
57659;SDS011;43485;45.680;15.702;2023-08-07T11:13:45;1.40;;;1.30;;
57659;SDS011;43485;45.680;15.702;2023-08-07T11:16:11;1.38;;;1.27;;
57659;SDS011;43485;45.680;15.702;2023-08-07T11:18:38;1.27;;;1.17;;
57659;SDS011;43485;45.680;15.702;2023-08-07T11:21:07;1.40;;;1.30;;
57659;SDS011;43485;45.680;15.702;2023-08-07T11:23:36;1.48;;;1.38;;
57659;SDS011;43485;45.680;15.702;2023-08-07T11:26:03;1.60;;;1.50;;
57659;SDS011;43485;45.680;15.702;2023-08-07T11:28:29;1.63;;;1.52;;
57659;SDS011;43485;45.680;15.702;2023-08-07T11:30:55;1.55;;;1.45;;
57659;SDS011;43485;45.680;15.702;2023-08-07T11:41:18;2.00;;;1.80;;
57659;SDS011;43485;45.680;15.702;2023-08-07T11:43:44;1.80;;;1.70;;
57659;SDS011;43485;45.680;15.702;2023-08-07T11:46:12;2.00;;;1.80;;
57659;SDS011;43485;45.680;15.702;2023-08-07T11:48:40;2.10;;;1.90;;
57659;SDS011;43485;45.680;15.702;2023-08-07T11:51:08;2.40;;;2.20;;
57659;SDS011;43485;45.680;15.702;2023-08-07T11:53:35;2.10;;;1.90;;
57659;SDS011;43485;45.680;15.702;2023-08-07T11:56:03;1.98;;;1.80;;
57659;SDS011;43485;45.680;15.702;2023-08-07T11:58:50;1.58;;;1.48;;
57659;SDS011;43485;45.680;15.702;2023-08-07T12:01:19;1.58;;;1.48;;
57659;SDS011;43485;45.680;15.702;2023-08-07T12:06:33;1.40;;;1.30;;
57659;SDS011;43485;45.680;15.702;2023-08-07T12:09:00;1.02;;;0.98;;
57659;SDS011;43485;45.680;15.702;2023-08-07T12:16:57;0.85;;;0.85;;
57659;SDS011;43485;45.680;15.702;2023-08-07T12:19:34;1.75;;;1.38;;
57659;SDS011;43485;45.680;15.702;2023-08-07T12:24:47;0.50;;;0.50;;
57659;SDS011;43485;45.680;15.702;2023-08-07T12:27:13;0.70;;;0.70;;
57659;SDS011;43485;45.680;15.702;2023-08-07T12:29:39;0.50;;;0.50;;
57659;SDS011;43485;45.680;15.702;2023-08-07T12:32:05;0.45;;;0.45;;
57659;SDS011;43485;45.680;15.702;2023-08-07T12:34:32;0.40;;;0.40;;
57659;SDS011;43485;45.680;15.702;2023-08-07T12:36:57;0.35;;;0.35;;
57659;SDS011;43485;45.680;15.702;2023-08-07T12:39:23;0.30;;;0.30;;
57659;SDS011;43485;45.680;15.702;2023-08-07T12:41:50;0.22;;;0.22;;
57659;SDS011;43485;45.680;15.702;2023-08-07T12:44:16;0.43;;;0.43;;
57659;SDS011;43485;45.680;15.702;2023-08-07T12:46:42;0.45;;;0.40;;
57659;SDS011;43485;45.680;15.702;2023-08-07T12:49:08;1.08;;;0.43;;
57659;SDS011;43485;45.680;15.702;2023-08-07T12:51:34;0.30;;;0.30;;
57659;SDS011;43485;45.680;15.702;2023-08-07T12:54:00;1.00;;;0.40;;
57659;SDS011;43485;45.680;15.702;2023-08-07T12:56:26;0.40;;;0.40;;
57659;SDS011;43485;45.680;15.702;2023-08-07T12:58:52;0.30;;;0.30;;
57659;SDS011;43485;45.680;15.702;2023-08-07T13:01:18;0.30;;;0.30;;
57659;SDS011;43485;45.680;15.702;2023-08-07T13:03:44;0.20;;;0.20;;
57659;SDS011;43485;45.680;15.702;2023-08-07T13:06:10;0.25;;;0.25;;
57659;SDS011;43485;45.680;15.702;2023-08-07T13:08:37;0.30;;;0.30;;
57659;SDS011;43485;45.680;15.702;2023-08-07T13:11:03;0.73;;;0.52;;
57659;SDS011;43485;45.680;15.702;2023-08-07T13:13:29;0.40;;;0.40;;
57659;SDS011;43485;45.680;15.702;2023-08-07T13:15:56;0.20;;;0.20;;
57659;SDS011;43485;45.680;15.702;2023-08-07T13:18:22;0.32;;;0.32;;
57659;SDS011;43485;45.680;15.702;2023-08-07T13:20:49;0.20;;;0.20;;
57659;SDS011;43485;45.680;15.702;2023-08-07T13:23:15;0.38;;;0.38;;
57659;SDS011;43485;45.680;15.702;2023-08-07T13:25:41;0.30;;;0.30;;
57659;SDS011;43485;45.680;15.702;2023-08-07T13:28:07;0.20;;;0.20;;
57659;SDS011;43485;45.680;15.702;2023-08-07T13:30:33;0.17;;;0.17;;
57659;SDS011;43485;45.680;15.702;2023-08-07T13:32:59;0.20;;;0.20;;
57659;SDS011;43485;45.680;15.702;2023-08-07T13:35:25;0.20;;;0.20;;
57659;SDS011;43485;45.680;15.702;2023-08-07T13:37:51;0.30;;;0.30;;
57659;SDS011;43485;45.680;15.702;2023-08-07T13:40:17;0.20;;;0.20;;
57659;SDS011;43485;45.680;15.702;2023-08-07T13:42:43;0.30;;;0.30;;
57659;SDS011;43485;45.680;15.702;2023-08-07T13:45:11;0.32;;;0.32;;
57659;SDS011;43485;45.680;15.702;2023-08-07T13:47:38;0.20;;;0.20;;
57659;SDS011;43485;45.680;15.702;2023-08-07T13:50:05;0.10;;;0.10;;
57659;SDS011;43485;45.680;15.702;2023-08-07T13:55:18;0.23;;;0.23;;
57659;SDS011;43485;45.680;15.702;2023-08-07T13:57:44;0.57;;;0.32;;
57659;SDS011;43485;45.680;15.702;2023-08-07T14:00:10;0.43;;;0.20;;
57659;SDS011;43485;45.680;15.702;2023-08-07T14:02:37;0.25;;;0.17;;
57659;SDS011;43485;45.680;15.702;2023-08-07T14:05:03;0.20;;;0.20;;
57659;SDS011;43485;45.680;15.702;2023-08-07T14:07:30;0.98;;;0.20;;
57659;SDS011;43485;45.680;15.702;2023-08-07T14:09:56;0.20;;;0.20;;
57659;SDS011;43485;45.680;15.702;2023-08-07T14:12:22;0.30;;;0.30;;
57659;SDS011;43485;45.680;15.702;2023-08-07T14:17:14;0.10;;;0.10;;
57659;SDS011;43485;45.680;15.702;2023-08-07T14:19:40;0.30;;;0.30;;
57659;SDS011;43485;45.680;15.702;2023-08-07T14:24:31;0.82;;;0.57;;
57659;SDS011;43485;45.680;15.702;2023-08-07T14:29:23;0.20;;;0.20;;
57659;SDS011;43485;45.680;15.702;2023-08-07T14:34:15;0.10;;;0.10;;
57659;SDS011;43485;45.680;15.702;2023-08-07T14:39:07;0.10;;;0.10;;
57659;SDS011;43485;45.680;15.702;2023-08-07T14:43:59;0.20;;;0.20;;
57659;SDS011;43485;45.680;15.702;2023-08-07T14:46:25;0.15;;;0.15;;
57659;SDS011;43485;45.680;15.702;2023-08-07T14:48:51;0.20;;;0.20;;
57659;SDS011;43485;45.680;15.702;2023-08-07T14:51:17;0.10;;;0.10;;
57659;SDS011;43485;45.680;15.702;2023-08-07T14:53:43;0.22;;;0.20;;
57659;SDS011;43485;45.680;15.702;2023-08-07T14:58:35;0.20;;;0.20;;
57659;SDS011;43485;45.680;15.702;2023-08-07T15:03:27;0.10;;;0.10;;
57659;SDS011;43485;45.680;15.702;2023-08-07T15:08:19;0.28;;;0.20;;
57659;SDS011;43485;45.680;15.702;2023-08-07T15:13:10;0.10;;;0.10;;
57659;SDS011;43485;45.680;15.702;2023-08-07T15:18:02;0.10;;;0.10;;
57659;SDS011;43485;45.680;15.702;2023-08-07T15:20:30;0.50;;;0.30;;
57659;SDS011;43485;45.680;15.702;2023-08-07T15:22:59;0.20;;;0.20;;
57659;SDS011;43485;45.680;15.702;2023-08-07T15:27:51;0.20;;;0.20;;
57659;SDS011;43485;45.680;15.702;2023-08-07T15:30:19;0.75;;;0.15;;
57659;SDS011;43485;45.680;15.702;2023-08-07T15:32:46;0.38;;;0.38;;
57659;SDS011;43485;45.680;15.702;2023-08-07T15:37:37;0.10;;;0.10;;
57659;SDS011;43485;45.680;15.702;2023-08-07T15:42:30;0.10;;;0.10;;
57659;SDS011;43485;45.680;15.702;2023-08-07T15:47:22;0.13;;;0.13;;
57659;SDS011;43485;45.680;15.702;2023-08-07T15:49:48;0.20;;;0.20;;
57659;SDS011;43485;45.680;15.702;2023-08-07T15:54:41;0.10;;;0.10;;
57659;SDS011;43485;45.680;15.702;2023-08-07T15:57:08;0.13;;;0.10;;
57659;SDS011;43485;45.680;15.702;2023-08-07T15:59:34;0.30;;;0.30;;
57659;SDS011;43485;45.680;15.702;2023-08-07T16:04:26;0.50;;;0.50;;
57659;SDS011;43485;45.680;15.702;2023-08-07T16:09:18;0.10;;;0.10;;
57659;SDS011;43485;45.680;15.702;2023-08-07T16:14:10;0.10;;;0.10;;
57659;SDS011;43485;45.680;15.702;2023-08-07T16:19:03;0.10;;;0.10;;
57659;SDS011;43485;45.680;15.702;2023-08-07T16:21:29;0.75;;;0.32;;
57659;SDS011;43485;45.680;15.702;2023-08-07T16:26:21;0.10;;;0.10;;
57659;SDS011;43485;45.680;15.702;2023-08-07T16:28:47;0.17;;;0.17;;
57659;SDS011;43485;45.680;15.702;2023-08-07T16:33:39;0.20;;;0.20;;
57659;SDS011;43485;45.680;15.702;2023-08-07T16:36:05;0.25;;;0.25;;
57659;SDS011;43485;45.680;15.702;2023-08-07T16:38:31;0.10;;;0.10;;
57659;SDS011;43485;45.680;15.702;2023-08-07T16:43:23;0.20;;;0.20;;
57659;SDS011;43485;45.680;15.702;2023-08-07T16:45:49;1.10;;;0.40;;
57659;SDS011;43485;45.680;15.702;2023-08-07T16:50:41;0.15;;;0.15;;
57659;SDS011;43485;45.680;15.702;2023-08-07T16:55:33;0.13;;;0.13;;
57659;SDS011;43485;45.680;15.702;2023-08-07T16:57:59;0.10;;;0.10;;
57659;SDS011;43485;45.680;15.702;2023-08-07T17:02:51;0.10;;;0.10;;
57659;SDS011;43485;45.680;15.702;2023-08-07T17:05:18;0.20;;;0.20;;
57659;SDS011;43485;45.680;15.702;2023-08-07T17:07:47;0.10;;;0.10;;
57659;SDS011;43485;45.680;15.702;2023-08-07T17:10:13;0.10;;;0.10;;
57659;SDS011;43485;45.680;15.702;2023-08-07T17:12:41;0.10;;;0.10;;
57659;SDS011;43485;45.680;15.702;2023-08-07T17:15:08;0.28;;;0.28;;
57659;SDS011;43485;45.680;15.702;2023-08-07T17:17:35;1.58;;;0.35;;